createdAt,value
2023-01-26T00:01:53.518Z,-0.20
2023-01-26T00:04:21.402Z,-0.10
2023-01-26T00:06:49.229Z,-0.10
2023-01-26T00:09:17.371Z,-0.10
2023-01-26T00:11:45.205Z,-0.10
2023-01-26T00:14:13.153Z,-0.10
2023-01-26T00:16:41.051Z,-0.20
2023-01-26T00:19:10.413Z,-0.10
2023-01-26T00:21:38.269Z,-0.10
2023-01-26T00:24:06.699Z,-0.10
2023-01-26T00:26:34.617Z,-0.10
2023-01-26T00:29:02.438Z,-0.10
2023-01-26T00:31:30.566Z,-0.10
2023-01-26T00:34:00.615Z,-0.20
2023-01-26T00:36:31.337Z,-0.20
2023-01-26T00:38:59.231Z,-0.30
2023-01-26T00:41:44.956Z,-0.20
2023-01-26T00:44:12.839Z,-0.20
2023-01-26T00:46:41.015Z,-0.20
2023-01-26T00:49:09.120Z,-0.20
2023-01-26T00:51:38.313Z,-0.10
2023-01-26T00:54:06.266Z,-0.20
2023-01-26T00:56:34.142Z,-0.20
2023-01-26T00:59:01.981Z,-0.30
2023-01-26T01:01:29.887Z,-0.30
2023-01-26T01:03:57.861Z,-0.30
2023-01-26T01:06:25.897Z,-0.30
2023-01-26T01:08:55.199Z,-0.30
2023-01-26T01:11:23.133Z,-0.30
2023-01-26T01:13:52.442Z,-0.30
2023-01-26T01:16:20.501Z,-0.30
2023-01-26T01:18:48.386Z,-0.30
2023-01-26T01:21:18.318Z,-0.30
2023-01-26T01:23:46.318Z,-0.30
2023-01-26T01:26:16.175Z,-0.30
2023-01-26T01:28:45.110Z,-0.30
2023-01-26T01:31:15.166Z,-0.30
2023-01-26T01:33:44.062Z,-0.20
2023-01-26T01:36:14.324Z,-0.20
2023-01-26T01:38:43.300Z,-0.20
2023-01-26T01:41:11.862Z,-0.20
2023-01-26T01:43:41.119Z,-0.20
2023-01-26T01:46:17.683Z,-0.10
2023-01-26T01:48:51.547Z,-0.10
2023-01-26T01:51:28.860Z,-0.20
2023-01-26T01:53:59.753Z,-0.20
2023-01-26T01:56:30.419Z,-0.20
2023-01-26T01:59:02.636Z,-0.10
2023-01-26T02:01:31.239Z,-0.20
2023-01-26T02:04:02.419Z,-0.20
2023-01-26T02:06:34.256Z,-0.20
2023-01-26T02:09:03.316Z,-0.20
2023-01-26T02:11:35.680Z,-0.20
2023-01-26T02:14:07.627Z,-0.20
2023-01-26T02:16:35.739Z,-0.10
2023-01-26T02:19:06.084Z,-0.10
2023-01-26T02:21:34.325Z,-0.10
2023-01-26T02:24:13.781Z,-0.10
2023-01-26T02:26:43.675Z,-0.10
2023-01-26T02:29:12.778Z,-0.10
2023-01-26T02:31:44.519Z,-0.10
2023-01-26T02:34:12.555Z,-0.10
2023-01-26T02:36:40.406Z,0.00
2023-01-26T02:39:23.293Z,0.00
2023-01-26T02:42:11.546Z,0.00
2023-01-26T02:44:42.481Z,0.00
2023-01-26T02:47:15.493Z,0.00
2023-01-26T02:49:50.901Z,-0.10
2023-01-26T02:52:22.516Z,0.00
2023-01-26T02:55:15.955Z,-0.10
2023-01-26T02:57:46.811Z,0.00
2023-01-26T03:00:18.593Z,0.00
2023-01-26T03:02:47.557Z,-0.10
2023-01-26T03:05:15.769Z,-0.10
2023-01-26T03:07:43.816Z,0.00
2023-01-26T03:10:13.852Z,0.10
2023-01-26T03:12:41.958Z,0.10
2023-01-26T03:15:30.327Z,0.10
2023-01-26T03:18:36.495Z,0.10
2023-01-26T03:21:24.301Z,0.10
2023-01-26T03:24:10.337Z,0.10
2023-01-26T03:26:57.198Z,0.10
2023-01-26T03:29:26.501Z,0.10
2023-01-26T03:31:59.206Z,0.10
2023-01-26T03:34:27.505Z,0.10
2023-01-26T03:36:55.401Z,0.00
2023-01-26T03:39:40.804Z,0.00
2023-01-26T03:42:26.348Z,0.00
2023-01-26T03:45:11.728Z,0.00
2023-01-26T03:48:01.583Z,0.10
2023-01-26T03:50:48.536Z,0.10
2023-01-26T03:53:35.980Z,0.20
2023-01-26T03:56:18.291Z,0.20
2023-01-26T03:58:48.282Z,0.20
2023-01-26T04:01:19.805Z,0.30
2023-01-26T04:04:09.914Z,0.30
2023-01-26T04:06:58.853Z,0.20
2023-01-26T04:09:26.851Z,0.20
2023-01-26T04:11:54.825Z,0.20
2023-01-26T04:14:49.853Z,0.30
2023-01-26T04:17:39.154Z,0.30
2023-01-26T04:20:27.811Z,0.30
2023-01-26T04:22:55.970Z,0.30
2023-01-26T04:25:24.436Z,0.30
2023-01-26T04:27:53.042Z,0.30
2023-01-26T04:30:21.293Z,0.40
2023-01-26T04:32:52.110Z,0.40
2023-01-26T04:35:21.360Z,0.40
2023-01-26T04:37:49.562Z,0.40
2023-01-26T04:40:18.203Z,0.40
2023-01-26T04:42:47.306Z,0.40
2023-01-26T04:45:15.207Z,0.40
2023-01-26T04:47:46.005Z,0.40
2023-01-26T04:50:16.821Z,0.40
2023-01-26T04:52:47.732Z,0.40
2023-01-26T04:55:16.936Z,0.40
2023-01-26T04:57:45.395Z,0.50
2023-01-26T05:00:14.869Z,0.40
2023-01-26T05:02:43.343Z,0.40
2023-01-26T05:05:11.647Z,0.40
2023-01-26T05:07:40.243Z,0.40
2023-01-26T05:10:13.886Z,0.40
2023-01-26T05:13:04.968Z,0.40
2023-01-26T05:15:45.383Z,0.40
2023-01-26T05:18:26.351Z,0.50
2023-01-26T05:21:04.616Z,0.50
2023-01-26T05:23:40.822Z,0.50
2023-01-26T05:26:40.935Z,0.50
2023-01-26T05:29:13.796Z,0.40
2023-01-26T05:31:41.915Z,0.50
2023-01-26T05:34:10.182Z,0.50
2023-01-26T05:36:38.416Z,0.40
2023-01-26T05:39:06.692Z,0.50
2023-01-26T05:41:34.620Z,0.60
2023-01-26T05:44:24.748Z,0.70
2023-01-26T05:46:58.403Z,0.60
2023-01-26T05:49:26.400Z,0.60
2023-01-26T05:51:55.469Z,0.60
2023-01-26T05:54:24.748Z,0.70
2023-01-26T05:56:53.755Z,0.70
2023-01-26T05:59:23.178Z,0.70
2023-01-26T06:01:51.065Z,0.70
2023-01-26T06:04:19.170Z,0.70
2023-01-26T06:06:54.336Z,0.70
2023-01-26T06:09:27.334Z,0.70
2023-01-26T06:12:35.333Z,0.70
2023-01-26T06:15:17.270Z,0.70
2023-01-26T06:17:47.306Z,0.60
2023-01-26T06:20:16.550Z,0.70
2023-01-26T06:22:52.461Z,0.70
2023-01-26T06:25:20.407Z,0.70
2023-01-26T06:27:48.290Z,0.70
2023-01-26T06:30:26.505Z,0.70
2023-01-26T06:32:58.860Z,0.70
2023-01-26T06:35:28.127Z,0.80
2023-01-26T06:37:58.619Z,0.80
2023-01-26T06:40:26.606Z,0.80
2023-01-26T06:42:54.591Z,0.80
2023-01-26T06:45:22.678Z,0.80
2023-01-26T06:47:53.178Z,0.70
2023-01-26T06:50:24.205Z,0.70
2023-01-26T06:52:55.526Z,0.90
2023-01-26T06:55:39.034Z,0.90
2023-01-26T06:58:30.037Z,0.90
2023-01-26T07:01:08.310Z,0.90
2023-01-26T07:03:37.531Z,0.90
2023-01-26T07:06:07.870Z,0.80
2023-01-26T07:08:35.742Z,0.80
2023-01-26T07:11:03.544Z,0.90
2023-01-26T07:13:31.398Z,0.90
2023-01-26T07:16:02.420Z,0.90
2023-01-26T07:18:30.434Z,1.00
2023-01-26T07:21:02.832Z,1.00
2023-01-26T07:23:31.013Z,1.00
2023-01-26T07:25:59.700Z,1.00
2023-01-26T07:28:30.354Z,0.90
2023-01-26T07:30:59.344Z,0.90
2023-01-26T07:33:27.374Z,0.90
2023-01-26T07:35:55.623Z,0.90
2023-01-26T07:38:25.565Z,0.90
2023-01-26T07:40:53.951Z,1.00
2023-01-26T07:43:22.245Z,1.00
2023-01-26T07:45:53.674Z,1.00
2023-01-26T07:48:23.016Z,1.00
2023-01-26T07:50:51.338Z,1.00
2023-01-26T07:53:22.697Z,1.00
2023-01-26T07:55:52.216Z,1.00
2023-01-26T07:58:20.175Z,1.00
2023-01-26T08:00:48.125Z,1.00
2023-01-26T08:03:16.055Z,1.00
2023-01-26T08:05:44.247Z,1.00
2023-01-26T08:08:12.240Z,1.10
2023-01-26T08:10:40.123Z,1.10
2023-01-26T08:13:09.288Z,1.10
2023-01-26T08:15:37.238Z,1.10
2023-01-26T08:18:05.884Z,1.10
2023-01-26T08:20:34.922Z,1.00
2023-01-26T08:23:02.771Z,1.10
2023-01-26T08:25:32.875Z,1.10
2023-01-26T08:28:00.742Z,1.10
2023-01-26T08:30:29.933Z,1.10
2023-01-26T08:32:57.793Z,1.20
2023-01-26T08:35:25.725Z,1.20
2023-01-26T08:37:54.415Z,1.20
2023-01-26T08:40:22.221Z,1.10
2023-01-26T08:42:50.119Z,1.10
2023-01-26T08:45:18.155Z,1.10
2023-01-26T08:47:50.271Z,1.10
2023-01-26T08:50:18.407Z,1.10
2023-01-26T08:52:46.398Z,1.20
2023-01-26T08:55:14.270Z,1.20
2023-01-26T08:57:42.163Z,1.20
2023-01-26T09:00:11.777Z,1.20
2023-01-26T09:02:39.952Z,1.30
2023-01-26T09:05:10.473Z,1.30
2023-01-26T09:07:38.500Z,1.30
2023-01-26T09:10:07.840Z,1.50
2023-01-26T09:12:35.726Z,1.60
2023-01-26T09:15:04.198Z,1.50
2023-01-26T09:17:32.320Z,1.50
2023-01-26T09:20:00.136Z,1.50
2023-01-26T09:22:29.587Z,1.50
2023-01-26T09:24:57.610Z,1.50
2023-01-26T09:27:26.717Z,1.50
2023-01-26T09:29:55.184Z,1.50
2023-01-26T09:32:23.563Z,1.60
2023-01-26T09:34:51.516Z,1.50
2023-01-26T09:37:19.395Z,1.50
2023-01-26T09:39:48.595Z,1.50
2023-01-26T09:42:32.062Z,1.50
2023-01-26T09:45:10.456Z,1.50
2023-01-26T09:47:53.922Z,1.50
2023-01-26T09:50:27.626Z,1.50
2023-01-26T09:52:58.089Z,1.50
2023-01-26T09:55:30.196Z,1.50
2023-01-26T09:58:01.521Z,1.60
2023-01-26T10:00:33.592Z,1.60
2023-01-26T10:03:11.914Z,1.60
2023-01-26T10:05:45.105Z,1.70
2023-01-26T10:08:15.649Z,1.70
2023-01-26T10:10:48.191Z,1.80
2023-01-26T10:13:18.297Z,1.80
2023-01-26T10:15:50.406Z,2.10
2023-01-26T10:18:21.228Z,2.50
2023-01-26T10:20:52.371Z,2.40
2023-01-26T10:23:23.447Z,2.40
2023-01-26T10:25:54.298Z,2.30
2023-01-26T10:28:28.367Z,2.20
2023-01-26T10:30:57.049Z,2.10
2023-01-26T10:33:28.687Z,2.00
2023-01-26T10:35:56.802Z,1.90
2023-01-26T10:38:29.513Z,1.90
2023-01-26T10:41:00.467Z,2.00
2023-01-26T10:43:29.092Z,2.00
2023-01-26T10:45:56.924Z,2.10
2023-01-26T10:48:26.716Z,2.10
2023-01-26T10:50:55.795Z,2.10
2023-01-26T10:53:27.543Z,2.20
2023-01-26T10:56:02.602Z,2.10
2023-01-26T10:58:47.646Z,2.10
2023-01-26T11:01:18.887Z,2.20
2023-01-26T11:04:04.464Z,2.20
2023-01-26T11:06:33.022Z,2.10
2023-01-26T11:09:17.815Z,2.10
2023-01-26T11:11:57.673Z,1.90
2023-01-26T11:14:25.639Z,2.00
2023-01-26T11:17:00.016Z,2.00
2023-01-26T11:20:03.818Z,2.00
2023-01-26T11:22:38.419Z,2.00
2023-01-26T11:25:18.354Z,2.10
2023-01-26T11:28:00.277Z,2.00
2023-01-26T11:30:53.853Z,2.00
2023-01-26T11:33:29.901Z,2.10
2023-01-26T11:36:07.145Z,2.10
2023-01-26T11:38:40.957Z,2.10
2023-01-26T11:41:22.052Z,2.10
2023-01-26T11:44:07.853Z,2.10
2023-01-26T11:46:49.008Z,2.00
2023-01-26T11:49:33.211Z,2.00
2023-01-26T11:52:10.319Z,2.00
2023-01-26T11:55:15.631Z,2.00
2023-01-26T11:57:55.443Z,2.00
2023-01-26T12:00:34.483Z,2.10
2023-01-26T12:03:05.496Z,2.20
2023-01-26T12:05:42.608Z,2.20
2023-01-26T12:08:18.826Z,2.20
2023-01-26T12:10:51.999Z,2.20
2023-01-26T12:13:29.081Z,2.30
2023-01-26T12:16:05.830Z,2.30
2023-01-26T12:18:53.297Z,2.30
2023-01-26T12:21:29.513Z,2.40
2023-01-26T12:24:02.061Z,2.40
2023-01-26T12:26:36.059Z,2.50
2023-01-26T12:29:12.742Z,2.50
2023-01-26T12:31:49.000Z,2.50
2023-01-26T12:34:17.285Z,2.60
2023-01-26T12:36:52.442Z,2.60
2023-01-26T12:39:29.048Z,2.60
2023-01-26T12:42:16.970Z,2.60
2023-01-26T12:44:48.094Z,2.60
2023-01-26T12:47:22.808Z,2.60
2023-01-26T12:49:56.038Z,2.70
2023-01-26T12:52:29.085Z,2.70
2023-01-26T12:55:00.800Z,2.70
2023-01-26T12:57:39.679Z,2.60
2023-01-26T13:00:19.481Z,2.70
2023-01-26T13:02:52.020Z,2.80
2023-01-26T13:05:29.457Z,2.70
2023-01-26T13:07:57.703Z,2.70
2023-01-26T13:10:44.594Z,2.70
2023-01-26T13:13:30.666Z,2.70
2023-01-26T13:16:32.388Z,2.60
2023-01-26T13:19:02.290Z,2.70
2023-01-26T13:21:42.219Z,2.70
2023-01-26T13:24:43.493Z,2.70
2023-01-26T13:27:29.618Z,2.70
2023-01-26T13:29:57.774Z,2.70
2023-01-26T13:33:02.882Z,2.80
2023-01-26T13:35:33.075Z,2.80
2023-01-26T13:38:07.755Z,2.90
2023-01-26T13:40:37.509Z,2.80
2023-01-26T13:43:25.783Z,2.80
2023-01-26T13:46:01.876Z,2.90
2023-01-26T13:48:44.919Z,2.80
2023-01-26T13:51:20.717Z,2.90
2023-01-26T13:53:54.505Z,2.80
2023-01-26T13:56:28.026Z,2.80
2023-01-26T13:59:08.258Z,2.80
2023-01-26T14:01:43.223Z,2.90
2023-01-26T14:04:15.018Z,2.90
2023-01-26T14:06:48.561Z,2.80
2023-01-26T14:09:16.955Z,2.70
2023-01-26T14:11:46.779Z,2.60
2023-01-26T14:14:24.322Z,2.60
2023-01-26T14:16:52.267Z,2.60
2023-01-26T14:19:21.741Z,2.60
2023-01-26T14:21:52.903Z,2.60
2023-01-26T14:24:25.969Z,2.50
2023-01-26T14:26:55.530Z,2.50
2023-01-26T14:29:25.494Z,2.60
2023-01-26T14:31:55.463Z,2.60
2023-01-26T14:34:24.825Z,2.50
2023-01-26T14:37:07.991Z,2.60
2023-01-26T14:39:35.836Z,2.70
2023-01-26T14:42:04.577Z,2.90
2023-01-26T14:44:32.516Z,2.90
2023-01-26T14:47:05.350Z,2.70
2023-01-26T14:49:43.682Z,2.70
2023-01-26T14:52:24.944Z,2.70
2023-01-26T14:54:54.383Z,2.70
2023-01-26T14:57:25.340Z,2.70
2023-01-26T14:59:55.833Z,2.70
2023-01-26T15:02:26.165Z,2.80
2023-01-26T15:04:59.486Z,2.80
2023-01-26T15:07:35.871Z,2.80
2023-01-26T15:10:25.186Z,2.80
2023-01-26T15:12:59.080Z,2.80
2023-01-26T15:15:29.912Z,2.90
2023-01-26T15:18:18.662Z,3.00
2023-01-26T15:21:00.061Z,2.90
2023-01-26T15:23:32.045Z,2.90
2023-01-26T15:26:08.502Z,2.90
2023-01-26T15:28:37.325Z,2.90
2023-01-26T15:31:05.791Z,2.90
2023-01-26T15:33:45.438Z,3.00
2023-01-26T15:36:25.293Z,3.00
2023-01-26T15:39:01.768Z,3.00
2023-01-26T15:41:30.278Z,3.10
2023-01-26T15:43:59.440Z,3.20
2023-01-26T15:46:27.635Z,3.20
2023-01-26T15:48:55.824Z,3.30
2023-01-26T15:51:23.805Z,3.30
2023-01-26T15:53:51.597Z,3.30
2023-01-26T15:56:20.756Z,3.30
2023-01-26T15:58:48.677Z,3.30
2023-01-26T16:01:21.585Z,3.20
2023-01-26T16:03:50.585Z,3.20
2023-01-26T16:06:23.607Z,3.40
2023-01-26T16:08:52.060Z,3.40
2023-01-26T16:11:22.870Z,3.50
2023-01-26T16:14:02.881Z,3.50
2023-01-26T16:16:32.031Z,3.50
2023-01-26T16:19:00.139Z,3.50
2023-01-26T16:21:31.327Z,3.60
2023-01-26T16:23:59.609Z,3.90
2023-01-26T16:26:29.508Z,4.00
2023-01-26T16:28:57.853Z,3.90
2023-01-26T16:31:29.054Z,3.70
2023-01-26T16:33:57.566Z,3.70
2023-01-26T16:36:25.385Z,3.70
2023-01-26T16:38:53.233Z,3.70
2023-01-26T16:41:25.673Z,3.70
2023-01-26T16:43:57.358Z,3.80
2023-01-26T16:46:25.772Z,3.90
2023-01-26T16:48:53.741Z,4.00
2023-01-26T16:51:25.366Z,4.00
2023-01-26T16:53:53.677Z,4.00
2023-01-26T16:56:21.673Z,4.00
2023-01-26T16:58:49.610Z,4.00
2023-01-26T17:01:21.746Z,4.00
2023-01-26T17:03:50.942Z,3.90
2023-01-26T17:06:20.127Z,3.90
2023-01-26T17:08:48.406Z,3.90
2023-01-26T17:11:18.277Z,3.80
2023-01-26T17:13:46.584Z,3.90
2023-01-26T17:16:16.372Z,3.90
2023-01-26T17:18:46.102Z,3.90
2023-01-26T17:21:14.443Z,3.90
2023-01-26T17:23:44.368Z,3.90
2023-01-26T17:26:15.227Z,3.90
2023-01-26T17:28:43.160Z,3.80
2023-01-26T17:31:12.210Z,3.90
2023-01-26T17:33:40.661Z,3.90
2023-01-26T17:36:10.873Z,4.00
2023-01-26T17:38:38.808Z,4.00
2023-01-26T17:41:06.901Z,3.90
2023-01-26T17:43:34.946Z,3.90
2023-01-26T17:46:07.097Z,3.90
2023-01-26T17:48:37.384Z,3.90
2023-01-26T17:51:11.263Z,3.90
2023-01-26T17:53:40.026Z,3.90
2023-01-26T17:56:09.280Z,4.00
2023-01-26T17:58:37.550Z,4.00
2023-01-26T18:01:06.151Z,4.10
2023-01-26T18:03:35.439Z,4.10
2023-01-26T18:06:03.297Z,4.10
2023-01-26T18:08:32.525Z,4.10
2023-01-26T18:11:01.810Z,4.10
2023-01-26T18:13:30.436Z,4.10
2023-01-26T18:15:58.382Z,4.10
2023-01-26T18:18:27.925Z,4.10
2023-01-26T18:20:56.299Z,4.10
2023-01-26T18:23:25.246Z,4.20
2023-01-26T18:25:54.558Z,4.20
2023-01-26T18:28:22.572Z,4.20
2023-01-26T18:30:50.420Z,4.10
2023-01-26T18:33:18.417Z,4.20
2023-01-26T18:35:46.241Z,4.10
2023-01-26T18:38:14.128Z,4.10
2023-01-26T18:40:42.000Z,4.10
2023-01-26T18:43:11.260Z,4.20
2023-01-26T18:45:42.760Z,4.30
2023-01-26T18:48:10.723Z,4.30
2023-01-26T18:50:39.232Z,4.30
2023-01-26T18:53:07.183Z,4.30
2023-01-26T18:55:35.029Z,4.30
2023-01-26T18:58:02.904Z,4.40
2023-01-26T19:00:32.088Z,4.30
2023-01-26T19:03:00.116Z,4.40
2023-01-26T19:05:28.176Z,4.50
2023-01-26T19:07:56.023Z,4.40
2023-01-26T19:10:24.105Z,4.50
2023-01-26T19:12:53.245Z,4.50
2023-01-26T19:15:21.167Z,4.60
2023-01-26T19:17:51.483Z,4.60
2023-01-26T19:20:19.471Z,4.60
2023-01-26T19:22:53.709Z,4.60
2023-01-26T19:25:21.749Z,4.60
2023-01-26T19:27:49.849Z,4.60
2023-01-26T19:30:18.368Z,4.60
2023-01-26T19:33:02.910Z,4.60
2023-01-26T19:35:33.644Z,4.60
2023-01-26T19:38:01.538Z,4.50
2023-01-26T19:40:29.391Z,4.50
2023-01-26T19:42:57.293Z,4.60
2023-01-26T19:45:25.092Z,4.60
2023-01-26T19:47:52.997Z,4.60
2023-01-26T19:50:21.092Z,4.60
2023-01-26T19:52:50.379Z,4.70
2023-01-26T19:55:18.208Z,4.70
2023-01-26T19:57:46.115Z,4.70
2023-01-26T20:00:15.101Z,4.60
2023-01-26T20:02:43.019Z,4.60
2023-01-26T20:05:11.571Z,4.70
2023-01-26T20:07:39.621Z,4.70
2023-01-26T20:10:10.175Z,4.80
2023-01-26T20:12:38.088Z,4.70
2023-01-26T20:15:07.002Z,4.60
2023-01-26T20:17:35.207Z,4.70
2023-01-26T20:20:03.314Z,4.60
2023-01-26T20:22:33.911Z,4.70
2023-01-26T20:25:01.799Z,4.60
2023-01-26T20:27:31.719Z,4.60
2023-01-26T20:30:00.359Z,4.60
2023-01-26T20:32:28.605Z,4.60
2023-01-26T20:34:56.850Z,4.70
2023-01-26T20:37:24.699Z,4.70
2023-01-26T20:39:52.616Z,4.60
2023-01-26T20:42:20.521Z,4.70
2023-01-26T20:44:49.783Z,4.70
2023-01-26T20:47:17.634Z,4.70
2023-01-26T20:49:45.542Z,4.70
2023-01-26T20:52:13.340Z,4.70
2023-01-26T20:54:41.215Z,4.70
2023-01-26T20:57:09.079Z,4.70
2023-01-26T20:59:36.993Z,4.80
2023-01-26T21:02:06.232Z,4.80
2023-01-26T21:04:34.131Z,4.90
2023-01-26T21:07:01.944Z,4.90
2023-01-26T21:09:29.841Z,5.00
2023-01-26T21:11:57.743Z,5.00
2023-01-26T21:14:25.614Z,5.00
2023-01-26T21:16:53.444Z,4.90
2023-01-26T21:19:22.808Z,4.90
2023-01-26T21:21:50.739Z,5.00
2023-01-26T21:24:18.683Z,5.10
2023-01-26T21:26:47.789Z,5.00
2023-01-26T21:29:17.071Z,5.10
2023-01-26T21:31:48.672Z,5.00
2023-01-26T21:34:16.607Z,5.00
2023-01-26T21:36:45.888Z,5.00
2023-01-26T21:39:15.318Z,5.00
2023-01-26T21:41:59.159Z,5.00
2023-01-26T21:44:28.731Z,4.90
2023-01-26T21:46:58.428Z,5.00
2023-01-26T21:49:28.378Z,4.90
2023-01-26T21:52:15.897Z,5.00
2023-01-26T21:54:44.145Z,5.00
2023-01-26T21:57:26.367Z,5.10
2023-01-26T21:59:54.276Z,5.10
2023-01-26T22:02:22.500Z,5.20
2023-01-26T22:04:50.571Z,5.10
2023-01-26T22:07:19.759Z,5.10
2023-01-26T22:09:48.066Z,5.20
2023-01-26T22:12:16.522Z,5.10
2023-01-26T22:14:45.947Z,5.10
2023-01-26T22:17:13.802Z,5.10
2023-01-26T22:19:41.783Z,5.20
2023-01-26T22:22:09.655Z,5.10
2023-01-26T22:24:38.870Z,5.10
2023-01-26T22:27:08.156Z,5.10
2023-01-26T22:29:36.274Z,5.10
2023-01-26T22:32:04.200Z,5.10
2023-01-26T22:34:32.484Z,5.10
2023-01-26T22:37:00.319Z,5.20
2023-01-26T22:39:28.178Z,5.30
2023-01-26T22:41:57.292Z,5.30
2023-01-26T22:44:25.198Z,5.20
2023-01-26T22:46:53.145Z,5.20
2023-01-26T22:49:21.125Z,5.20
2023-01-26T22:51:48.929Z,5.30
2023-01-26T22:54:16.886Z,5.20
2023-01-26T22:56:44.692Z,5.20
2023-01-26T22:59:13.948Z,5.20
2023-01-26T23:01:42.684Z,5.20
2023-01-26T23:04:11.183Z,5.20
2023-01-26T23:06:39.153Z,5.20
2023-01-26T23:09:07.066Z,5.20
2023-01-26T23:11:34.889Z,5.20
2023-01-26T23:14:02.757Z,5.20
2023-01-26T23:16:32.123Z,5.10
2023-01-26T23:19:00.559Z,5.20
2023-01-26T23:21:30.502Z,5.10
2023-01-26T23:23:58.517Z,5.10
2023-01-26T23:26:26.473Z,5.20
2023-01-26T23:28:54.762Z,5.20
2023-01-26T23:31:23.097Z,5.10
2023-01-26T23:33:52.420Z,5.10
2023-01-26T23:36:20.794Z,5.10
2023-01-26T23:38:48.687Z,5.10
2023-01-26T23:41:16.673Z,5.00
2023-01-26T23:43:44.668Z,5.10
2023-01-26T23:46:13.260Z,5.20
2023-01-26T23:48:41.425Z,5.10
2023-01-26T23:51:12.552Z,5.10
2023-01-26T23:53:40.604Z,5.20
2023-01-26T23:56:10.717Z,5.20
2023-01-26T23:58:38.627Z,5.10
